createdAt,value
2017-09-21T00:00:06.860Z,101387.45
2017-09-21T00:02:34.426Z,101385.30
2017-09-21T00:05:02.044Z,101380.83
2017-09-21T00:07:28.903Z,101388.83
2017-09-21T00:09:55.829Z,101379.16
2017-09-21T00:12:23.408Z,101378.24
2017-09-21T00:14:50.981Z,101380.97
2017-09-21T00:17:17.836Z,101376.45
2017-09-21T00:19:44.709Z,101376.30
2017-09-21T00:22:12.383Z,101370.40
2017-09-21T00:24:39.196Z,101374.38
2017-09-21T00:27:06.043Z,101372.08
2017-09-21T00:29:32.907Z,101369.29
2017-09-21T00:31:59.745Z,101367.47
2017-09-21T00:34:26.590Z,101369.03
2017-09-21T00:36:54.207Z,101368.72
2017-09-21T00:39:21.181Z,101372.45
2017-09-21T00:41:48.100Z,101374.09
2017-09-21T00:44:15.684Z,101373.53
2017-09-21T00:46:43.296Z,101374.24
2017-09-21T00:49:10.779Z,101370.02
2017-09-21T00:51:37.676Z,101372.50
2017-09-21T00:54:04.651Z,101376.50
2017-09-21T00:56:32.402Z,101371.00
2017-09-21T00:58:59.505Z,101374.61
2017-09-21T01:01:26.529Z,101379.59
2017-09-21T01:03:53.361Z,101376.95
2017-09-21T01:06:20.205Z,101372.59
2017-09-21T01:08:47.867Z,101377.83
2017-09-21T01:11:14.783Z,101377.58
2017-09-21T01:13:41.635Z,101374.62
2017-09-21T01:16:08.574Z,101370.98
2017-09-21T01:18:35.459Z,101370.73
2017-09-21T01:21:03.068Z,101367.39
2017-09-21T01:23:29.951Z,101364.75
2017-09-21T01:25:57.426Z,101369.83
2017-09-21T01:28:24.342Z,101374.35
2017-09-21T01:30:51.282Z,101375.11
2017-09-21T01:33:18.922Z,101373.63
2017-09-21T01:35:45.838Z,101377.66
2017-09-21T01:38:12.738Z,101368.55
2017-09-21T01:40:39.601Z,101375.70
2017-09-21T01:43:06.466Z,101376.84
2017-09-21T01:45:33.361Z,101377.07
2017-09-21T01:48:01.006Z,101373.48
2017-09-21T01:50:27.928Z,101370.78
2017-09-21T01:52:54.839Z,101373.75
2017-09-21T01:55:21.699Z,101381.67
2017-09-21T01:57:48.639Z,101374.70
2017-09-21T02:00:15.543Z,101381.78
2017-09-21T02:02:42.423Z,101371.63
2017-09-21T02:05:09.278Z,101372.49
2017-09-21T02:07:36.963Z,101377.66
2017-09-21T02:10:04.640Z,101384.27
2017-09-21T02:12:32.538Z,101388.40
2017-09-21T02:14:59.439Z,101386.52
2017-09-21T02:17:26.410Z,101387.59
2017-09-21T02:19:53.249Z,101385.31
2017-09-21T02:22:20.773Z,101388.06
2017-09-21T02:24:48.188Z,101387.70
2017-09-21T02:27:15.008Z,101391.08
2017-09-21T02:29:41.808Z,101387.95
2017-09-21T02:32:08.629Z,101387.67
2017-09-21T02:34:35.434Z,101382.64
2017-09-21T02:37:03.014Z,101378.02
2017-09-21T02:39:29.899Z,101377.94
2017-09-21T02:41:56.704Z,101380.96
2017-09-21T02:44:24.260Z,101384.12
2017-09-21T02:46:51.153Z,101382.34
2017-09-21T02:49:18.756Z,101378.19
2017-09-21T02:51:45.595Z,101378.26
2017-09-21T02:54:13.176Z,101374.68
2017-09-21T02:56:40.043Z,101369.34
2017-09-21T02:59:06.887Z,101358.34
2017-09-21T03:01:34.424Z,101366.63
2017-09-21T03:04:01.285Z,101364.08
2017-09-21T03:06:28.110Z,101369.74
2017-09-21T03:08:54.983Z,101367.36
2017-09-21T03:11:21.781Z,101362.99
2017-09-21T03:13:48.689Z,101361.00
2017-09-21T03:16:15.597Z,101364.27
2017-09-21T03:18:42.423Z,101370.99
2017-09-21T03:21:09.329Z,101364.58
2017-09-21T03:23:36.139Z,101373.98
2017-09-21T03:26:03.699Z,101372.79
2017-09-21T03:28:30.537Z,101372.18
2017-09-21T03:30:57.345Z,101369.59
2017-09-21T03:33:24.157Z,101371.09
2017-09-21T03:35:50.964Z,101366.14
2017-09-21T03:38:17.869Z,101369.57
2017-09-21T03:40:44.680Z,101368.70
2017-09-21T03:43:11.473Z,101368.94
2017-09-21T03:45:38.384Z,101374.91
2017-09-21T03:48:05.936Z,101369.53
2017-09-21T03:50:32.772Z,101371.80
2017-09-21T03:52:59.592Z,101370.73
2017-09-21T03:55:26.430Z,101368.72
2017-09-21T03:57:54.064Z,101363.25
2017-09-21T04:00:20.894Z,101365.13
2017-09-21T04:02:47.709Z,101365.02
2017-09-21T04:05:14.558Z,101364.08
2017-09-21T04:07:42.172Z,101359.80
2017-09-21T04:10:09.752Z,101363.70
2017-09-21T04:12:37.301Z,101362.33
2017-09-21T04:15:04.182Z,101356.98
2017-09-21T04:17:31.064Z,101365.95
2017-09-21T04:19:58.713Z,101369.44
2017-09-21T04:22:25.596Z,101373.94
2017-09-21T04:24:53.167Z,101368.27
2017-09-21T04:27:20.732Z,101369.17
2017-09-21T04:29:47.519Z,101366.77
2017-09-21T04:32:15.072Z,101370.68
2017-09-21T04:34:41.892Z,101374.62
2017-09-21T04:37:08.736Z,101380.33
2017-09-21T04:39:35.609Z,101377.86
2017-09-21T04:42:03.868Z,101376.37
2017-09-21T04:44:30.660Z,101380.20
2017-09-21T04:46:57.520Z,101380.02
2017-09-21T04:49:24.392Z,101379.50
2017-09-21T04:51:51.223Z,101372.85
2017-09-21T04:54:18.096Z,101378.81
2017-09-21T04:56:45.043Z,101377.44
2017-09-21T04:59:11.886Z,101379.00
2017-09-21T05:01:39.513Z,101383.51
2017-09-21T05:04:06.370Z,101382.08
2017-09-21T05:06:33.230Z,101383.77
2017-09-21T05:09:00.120Z,101381.12
2017-09-21T05:11:26.924Z,101386.34
2017-09-21T05:13:53.716Z,101378.08
2017-09-21T05:16:20.520Z,101386.83
2017-09-21T05:18:47.331Z,101379.37
2017-09-21T05:21:15.011Z,101375.25
2017-09-21T05:23:42.572Z,101379.00
2017-09-21T05:26:09.400Z,101376.69
2017-09-21T05:28:36.996Z,101379.92
2017-09-21T05:31:04.567Z,101385.64
2017-09-21T05:33:32.140Z,101394.05
2017-09-21T05:35:58.991Z,101385.45
2017-09-21T05:38:25.823Z,101387.72
2017-09-21T05:40:52.691Z,101389.53
2017-09-21T05:43:19.525Z,101392.25
2017-09-21T05:45:46.332Z,101399.42
2017-09-21T05:48:13.163Z,101400.93
2017-09-21T05:50:39.956Z,101392.36
2017-09-21T05:53:06.772Z,101392.67
2017-09-21T05:55:33.581Z,101396.69
2017-09-21T05:58:00.415Z,101401.41
2017-09-21T06:00:28.176Z,101398.33
2017-09-21T06:02:55.025Z,101396.69
2017-09-21T06:05:21.902Z,101390.73
2017-09-21T06:07:48.701Z,101396.00
2017-09-21T06:10:15.538Z,101396.37
2017-09-21T06:12:42.380Z,101392.22
2017-09-21T06:15:09.204Z,101394.00
2017-09-21T06:17:36.818Z,101399.26
2017-09-21T06:20:03.666Z,101394.12
2017-09-21T06:22:30.537Z,101388.33
2017-09-21T06:24:57.372Z,101390.66
2017-09-21T06:27:24.946Z,101395.87
2017-09-21T06:29:52.512Z,101399.50
2017-09-21T06:32:19.318Z,101393.94
2017-09-21T06:34:46.147Z,101394.92
2017-09-21T06:37:13.732Z,101392.48
2017-09-21T06:39:40.546Z,101390.08
2017-09-21T06:42:07.384Z,101391.25
2017-09-21T06:44:34.236Z,101390.30
2017-09-21T06:47:01.093Z,101393.40
2017-09-21T06:49:27.947Z,101392.48
2017-09-21T06:51:54.790Z,101389.38
2017-09-21T06:54:22.409Z,101390.91
2017-09-21T06:56:49.189Z,101393.25
2017-09-21T06:59:16.006Z,101389.23
2017-09-21T07:01:42.889Z,101393.90
2017-09-21T07:04:09.730Z,101387.58
2017-09-21T07:06:36.560Z,101389.54
2017-09-21T07:09:04.131Z,101387.94
2017-09-21T07:11:30.968Z,101394.35
2017-09-21T07:13:57.801Z,101390.17
2017-09-21T07:16:24.632Z,101389.94
2017-09-21T07:18:52.184Z,101389.83
2017-09-21T07:21:19.006Z,101389.42
2017-09-21T07:23:45.859Z,101383.35
2017-09-21T07:26:12.685Z,101394.73
2017-09-21T07:28:40.227Z,101389.77
2017-09-21T07:31:07.043Z,101392.73
2017-09-21T07:33:33.951Z,101392.28
2017-09-21T07:36:00.764Z,101391.10
2017-09-21T07:38:27.610Z,101394.22
2017-09-21T07:40:55.177Z,101400.49
2017-09-21T07:43:22.736Z,101395.70
2017-09-21T07:45:49.582Z,101399.75
2017-09-21T07:48:16.391Z,101397.95
2017-09-21T07:50:44.028Z,101399.69
2017-09-21T07:53:10.947Z,101403.55
2017-09-21T07:55:37.770Z,101406.34
2017-09-21T07:58:04.637Z,101411.42
2017-09-21T08:00:31.507Z,101405.84
2017-09-21T08:02:59.126Z,101399.23
2017-09-21T08:05:25.962Z,101407.28
2017-09-21T08:07:53.539Z,101402.28
2017-09-21T08:10:21.115Z,101408.64
2017-09-21T08:12:48.755Z,101404.92
2017-09-21T08:15:15.610Z,101407.84
2017-09-21T08:17:42.491Z,101407.11
2017-09-21T08:20:09.301Z,101400.89
2017-09-21T08:22:36.172Z,101404.49
2017-09-21T08:25:03.026Z,101409.14
2017-09-21T08:27:29.922Z,101404.52
2017-09-21T08:29:56.755Z,101402.52
2017-09-21T08:32:23.587Z,101401.36
2017-09-21T08:34:50.418Z,101397.80
2017-09-21T08:37:17.996Z,101396.88
2017-09-21T08:39:44.881Z,101405.05
2017-09-21T08:42:12.479Z,101387.03
2017-09-21T08:44:39.276Z,101388.28
2017-09-21T08:47:06.063Z,101386.78
2017-09-21T08:49:32.896Z,101382.84
2017-09-21T08:51:59.697Z,101383.31
2017-09-21T08:54:27.269Z,101382.44
2017-09-21T08:56:54.823Z,101381.00
2017-09-21T08:59:21.615Z,101374.84
2017-09-21T09:01:49.181Z,101376.08
2017-09-21T09:04:16.759Z,101371.14
2017-09-21T09:06:44.316Z,101374.96
2017-09-21T09:09:11.249Z,101375.08
2017-09-21T09:11:38.100Z,101367.14
2017-09-21T09:14:04.904Z,101366.81
2017-09-21T09:16:31.742Z,101363.23
2017-09-21T09:18:58.624Z,101360.52
2017-09-21T09:21:25.474Z,101365.73
2017-09-21T09:23:52.308Z,101359.92
2017-09-21T09:26:19.178Z,101359.00
2017-09-21T09:28:45.971Z,101361.63
2017-09-21T09:31:12.786Z,101359.91
2017-09-21T09:33:39.602Z,101358.72
2017-09-21T09:36:06.412Z,101353.53
2017-09-21T09:38:33.279Z,101350.98
2017-09-21T09:41:00.124Z,101352.94
2017-09-21T09:43:26.931Z,101351.61
2017-09-21T09:45:53.727Z,101344.20
2017-09-21T09:48:21.311Z,101345.40
2017-09-21T09:50:48.166Z,101337.08
2017-09-21T09:53:15.704Z,101333.78
2017-09-21T09:55:42.531Z,101330.75
2017-09-21T09:58:09.389Z,101335.22
2017-09-21T10:00:36.227Z,101330.90
2017-09-21T10:03:03.776Z,101327.70
2017-09-21T10:05:30.587Z,101325.95
2017-09-21T10:07:57.393Z,101322.30
2017-09-21T10:10:24.209Z,101319.75
2017-09-21T10:12:51.022Z,101321.50
2017-09-21T10:15:17.870Z,101324.99
2017-09-21T10:17:44.806Z,101324.33
2017-09-21T10:20:11.618Z,101320.55
2017-09-21T10:22:39.180Z,101320.37
2017-09-21T10:25:06.060Z,101315.19
2017-09-21T10:27:32.922Z,101318.29
2017-09-21T10:30:00.524Z,101319.63
2017-09-21T10:32:27.364Z,101314.52
2017-09-21T10:34:54.956Z,101318.47
2017-09-21T10:37:21.752Z,101311.30
2017-09-21T10:39:48.559Z,101309.16
2017-09-21T10:42:16.100Z,101310.84
2017-09-21T10:44:42.923Z,101316.08
2017-09-21T10:47:09.740Z,101306.77
2017-09-21T10:49:36.548Z,101308.70
2017-09-21T10:52:03.393Z,101303.09
2017-09-21T10:54:30.250Z,101303.70
2017-09-21T10:56:57.146Z,101308.27
2017-09-21T10:59:24.043Z,101305.98
2017-09-21T11:01:50.861Z,101300.77
2017-09-21T11:04:17.693Z,101298.15
2017-09-21T11:06:45.297Z,101304.42
2017-09-21T11:09:12.144Z,101302.28
2017-09-21T11:11:38.992Z,101301.89
2017-09-21T11:14:06.609Z,101292.76
2017-09-21T11:16:33.518Z,101293.38
2017-09-21T11:19:00.433Z,101298.56
2017-09-21T11:21:27.258Z,101286.44
2017-09-21T11:23:54.821Z,101281.64
2017-09-21T11:26:22.423Z,101287.66
2017-09-21T11:28:49.260Z,101282.39
2017-09-21T11:31:16.784Z,101280.09
2017-09-21T11:33:43.694Z,101283.53
2017-09-21T11:36:10.557Z,101282.35
2017-09-21T11:38:38.370Z,101277.60
2017-09-21T11:41:05.313Z,101269.97
2017-09-21T11:43:32.922Z,101274.81
2017-09-21T11:45:59.869Z,101270.25
2017-09-21T11:48:26.713Z,101267.31
2017-09-21T11:50:54.343Z,101265.08
2017-09-21T11:53:21.181Z,101263.38
2017-09-21T11:55:48.069Z,101259.06
2017-09-21T11:58:14.959Z,101261.64
2017-09-21T12:00:41.832Z,101255.02
2017-09-21T12:03:09.455Z,101258.34
2017-09-21T12:05:36.295Z,101261.22
2017-09-21T12:08:03.120Z,101259.12
2017-09-21T12:10:29.999Z,101258.02
2017-09-21T12:12:57.579Z,101241.72
2017-09-21T12:15:25.170Z,101243.13
2017-09-21T12:17:52.730Z,101239.86
2017-09-21T12:20:19.588Z,101238.33
2017-09-21T12:22:46.462Z,101238.59
2017-09-21T12:25:14.080Z,101227.33
2017-09-21T12:27:40.921Z,101237.89
2017-09-21T12:30:07.763Z,101238.38
2017-09-21T12:32:35.339Z,101244.72
2017-09-21T12:35:04.591Z,101234.81
2017-09-21T12:37:32.277Z,101233.30
2017-09-21T12:39:59.143Z,101233.19
2017-09-21T12:42:25.994Z,101239.27
2017-09-21T12:44:53.614Z,101233.55
2017-09-21T12:47:20.462Z,101231.22
2017-09-21T12:49:47.333Z,101226.36
2017-09-21T12:52:14.162Z,101226.66
2017-09-21T12:54:41.000Z,101230.94
2017-09-21T12:57:07.968Z,101226.56
2017-09-21T12:59:34.819Z,101223.78
2017-09-21T13:02:03.040Z,101217.90
2017-09-21T13:04:29.899Z,101215.24
2017-09-21T13:06:56.735Z,101217.41
2017-09-21T13:09:23.639Z,101216.31
2017-09-21T13:11:50.479Z,101203.27
2017-09-21T13:14:17.325Z,101206.15
2017-09-21T13:16:44.168Z,101203.41
2017-09-21T13:19:11.014Z,101203.14
2017-09-21T13:21:37.872Z,101205.73
2017-09-21T13:24:04.754Z,101210.48
2017-09-21T13:26:32.348Z,101209.98
2017-09-21T13:28:59.251Z,101211.77
2017-09-21T13:31:28.475Z,101207.09
2017-09-21T13:33:55.433Z,101203.21
2017-09-21T13:36:22.264Z,101204.52
2017-09-21T13:38:49.197Z,101203.39
2017-09-21T13:41:16.747Z,101200.94
2017-09-21T13:43:43.644Z,101203.74
2017-09-21T13:46:11.219Z,101197.50
2017-09-21T13:48:38.772Z,101197.80
2017-09-21T13:51:06.443Z,101199.28
2017-09-21T13:53:33.350Z,101194.55
2017-09-21T13:56:00.235Z,101193.95
2017-09-21T13:58:27.062Z,101196.96
2017-09-21T14:00:54.634Z,101193.78
2017-09-21T14:03:22.218Z,101190.61
2017-09-21T14:05:49.041Z,101192.87
2017-09-21T14:08:15.859Z,101190.23
2017-09-21T14:10:42.686Z,101189.09
2017-09-21T14:13:10.321Z,101191.83
2017-09-21T14:15:37.125Z,101192.66
2017-09-21T14:18:03.982Z,101189.18
2017-09-21T14:20:30.835Z,101193.05
2017-09-21T14:22:57.697Z,101189.84
2017-09-21T14:25:24.529Z,101189.87
2017-09-21T14:27:52.726Z,101183.83
2017-09-21T14:30:20.327Z,101187.98
2017-09-21T14:32:47.128Z,101182.55
2017-09-21T14:35:13.941Z,101178.66
2017-09-21T14:37:40.812Z,101179.38
2017-09-21T14:40:07.757Z,101177.55
2017-09-21T14:42:34.629Z,101170.60
2017-09-21T14:45:01.494Z,101179.21
2017-09-21T14:47:28.296Z,101171.72
2017-09-21T14:49:55.224Z,101176.59
2017-09-21T14:52:22.071Z,101174.45
2017-09-21T14:54:48.893Z,101174.83
2017-09-21T14:57:15.763Z,101180.91
2017-09-21T14:59:42.595Z,101169.09
2017-09-21T15:02:10.212Z,101169.61
2017-09-21T15:04:37.034Z,101169.30
2017-09-21T15:07:04.556Z,101167.47
2017-09-21T15:09:31.373Z,101171.41
2017-09-21T15:11:58.223Z,101166.86
2017-09-21T15:14:25.794Z,101167.52
2017-09-21T15:16:53.362Z,101169.41
2017-09-21T15:19:20.197Z,101164.96
2017-09-21T15:21:47.064Z,101166.32
2017-09-21T15:24:13.898Z,101164.61
2017-09-21T15:26:40.758Z,101165.06
2017-09-21T15:29:07.587Z,101159.38
2017-09-21T15:31:35.160Z,101165.75
2017-09-21T15:34:02.735Z,101163.20
2017-09-21T15:36:30.292Z,101168.09
2017-09-21T15:38:57.133Z,101162.50
2017-09-21T15:41:23.938Z,101163.14
2017-09-21T15:43:51.534Z,101167.49
2017-09-21T15:46:18.415Z,101164.67
2017-09-21T15:48:45.244Z,101160.80
2017-09-21T15:51:12.867Z,101164.20
2017-09-21T15:53:39.727Z,101161.12
2017-09-21T15:56:06.534Z,101163.52
2017-09-21T15:58:34.100Z,101168.01
2017-09-21T16:01:00.912Z,101170.53
2017-09-21T16:03:27.806Z,101166.41
2017-09-21T16:05:54.654Z,101170.75
2017-09-21T16:08:21.512Z,101170.03
2017-09-21T16:10:48.391Z,101174.17
2017-09-21T16:13:15.369Z,101172.81
2017-09-21T16:15:42.203Z,101168.56
2017-09-21T16:18:09.101Z,101170.44
2017-09-21T16:20:36.651Z,101169.66
2017-09-21T16:23:03.473Z,101176.20
2017-09-21T16:25:30.289Z,101173.73
2017-09-21T16:27:57.104Z,101170.08
2017-09-21T16:30:23.918Z,101173.06
2017-09-21T16:32:50.711Z,101175.36
2017-09-21T16:35:17.547Z,101171.54
2017-09-21T16:37:45.146Z,101176.20
2017-09-21T16:40:12.034Z,101180.80
2017-09-21T16:42:38.886Z,101177.12
2017-09-21T16:45:05.701Z,101178.38
2017-09-21T16:47:32.511Z,101175.34
2017-09-21T16:49:59.348Z,101172.62
2017-09-21T16:52:26.155Z,101184.12
2017-09-21T16:54:53.215Z,101176.20
2017-09-21T16:57:20.017Z,101178.61
2017-09-21T16:59:47.583Z,101183.88
2017-09-21T17:02:14.468Z,101184.23
2017-09-21T17:04:42.040Z,101182.25
2017-09-21T17:07:09.674Z,101182.11
2017-09-21T17:09:37.466Z,101188.28
2017-09-21T17:12:04.293Z,101182.87
2017-09-21T17:14:31.124Z,101187.09
2017-09-21T17:16:58.768Z,101187.19
2017-09-21T17:19:25.628Z,101193.10
2017-09-21T17:21:53.381Z,101194.92
2017-09-21T17:24:20.915Z,101191.05
2017-09-21T17:26:47.877Z,101190.86
2017-09-21T17:29:14.766Z,101194.44
2017-09-21T17:31:41.626Z,101195.52
2017-09-21T17:34:08.511Z,101191.45
2017-09-21T17:36:35.386Z,101190.42
2017-09-21T17:39:02.295Z,101189.23
2017-09-21T17:41:29.973Z,101191.89
2017-09-21T17:43:57.661Z,101197.36
2017-09-21T17:46:25.246Z,101208.42
2017-09-21T17:48:52.108Z,101208.62
2017-09-21T17:51:18.967Z,101209.52
2017-09-21T17:53:46.625Z,101215.88
2017-09-21T17:56:13.491Z,101214.00
2017-09-21T17:58:40.369Z,101224.56
2017-09-21T18:01:07.938Z,101210.86
2017-09-21T18:03:34.827Z,101217.34
2017-09-21T18:06:01.749Z,101221.97
2017-09-21T18:08:28.603Z,101214.67
2017-09-21T18:10:55.482Z,101212.84
2017-09-21T18:13:23.094Z,101224.11
2017-09-21T18:15:49.950Z,101221.77
2017-09-21T18:18:16.832Z,101225.95
2017-09-21T18:20:43.762Z,101219.09
2017-09-21T18:23:11.337Z,101221.30
2017-09-21T18:25:39.019Z,101222.27
2017-09-21T18:28:05.916Z,101222.73
2017-09-21T18:30:32.799Z,101217.52
2017-09-21T18:32:59.789Z,101221.44
2017-09-21T18:35:27.436Z,101223.70
2017-09-21T18:37:54.351Z,101226.42
2017-09-21T18:40:21.294Z,101227.79
2017-09-21T18:42:48.374Z,101226.94
2017-09-21T18:45:16.244Z,101227.55
2017-09-21T18:47:44.743Z,101232.65
2017-09-21T18:50:11.619Z,101234.55
2017-09-21T18:52:39.204Z,101230.67
2017-09-21T18:55:06.953Z,101234.02
2017-09-21T18:57:33.817Z,101238.26
2017-09-21T19:00:00.751Z,101234.73
2017-09-21T19:02:27.606Z,101232.78
2017-09-21T19:04:54.514Z,101230.63
2017-09-21T19:07:21.899Z,101232.48
2017-09-21T19:09:48.825Z,101233.60
2017-09-21T19:12:16.681Z,101240.01
2017-09-21T19:14:43.869Z,101244.49
2017-09-21T19:17:10.814Z,101242.20
2017-09-21T19:19:37.988Z,101246.80
2017-09-21T19:22:05.061Z,101244.37
2017-09-21T19:24:31.932Z,101243.00
2017-09-21T19:26:58.818Z,101241.23
2017-09-21T19:29:25.705Z,101245.90
2017-09-21T19:31:53.731Z,101239.33
2017-09-21T19:34:20.666Z,101241.33
2017-09-21T19:36:47.936Z,101242.23
2017-09-21T19:39:14.999Z,101241.47
2017-09-21T19:41:41.880Z,101240.48
2017-09-21T19:44:09.498Z,101244.45
2017-09-21T19:46:36.581Z,101239.48
2017-09-21T19:49:04.395Z,101238.77
2017-09-21T19:51:31.568Z,101243.19
2017-09-21T19:53:58.635Z,101244.66
2017-09-21T19:56:25.682Z,101243.50
2017-09-21T19:58:53.464Z,101238.73
2017-09-21T20:01:21.278Z,101244.28
2017-09-21T20:03:48.194Z,101243.08
2017-09-21T20:06:15.138Z,101235.48
2017-09-21T20:08:42.222Z,101239.41
2017-09-21T20:11:09.704Z,101235.12
2017-09-21T20:13:37.488Z,101240.53
2017-09-21T20:16:05.096Z,101241.89
2017-09-21T20:18:32.020Z,101250.66
2017-09-21T20:20:58.867Z,101243.58
2017-09-21T20:23:25.856Z,101243.75
2017-09-21T20:25:53.507Z,101247.78
2017-09-21T20:28:20.538Z,101244.86
2017-09-21T20:30:47.674Z,101244.22
2017-09-21T20:33:15.377Z,101247.92
2017-09-21T20:35:42.239Z,101247.70
2017-09-21T20:38:09.178Z,101253.20
2017-09-21T20:40:36.879Z,101256.28
2017-09-21T20:43:03.845Z,101258.01
2017-09-21T20:45:30.662Z,101259.47
2017-09-21T20:47:57.703Z,101260.13
2017-09-21T20:50:24.652Z,101261.18
2017-09-21T20:52:51.720Z,101256.65
2017-09-21T20:55:18.731Z,101259.80
2017-09-21T20:57:45.711Z,101258.39
2017-09-21T21:00:15.654Z,101260.19
2017-09-21T21:02:43.390Z,101256.56
2017-09-21T21:05:10.313Z,101256.56
2017-09-21T21:07:37.330Z,101260.45
2017-09-21T21:10:04.188Z,101256.63
2017-09-21T21:12:31.167Z,101253.34
2017-09-21T21:14:58.904Z,101256.86
2017-09-21T21:17:26.990Z,101258.28
2017-09-21T21:19:53.909Z,101252.97
2017-09-21T21:22:21.614Z,101249.38
2017-09-21T21:24:48.538Z,101255.21
2017-09-21T21:27:15.598Z,101255.39
2017-09-21T21:29:45.085Z,101258.38
2017-09-21T21:32:12.672Z,101257.31
2017-09-21T21:34:39.639Z,101262.39
2017-09-21T21:37:06.480Z,101260.93
2017-09-21T21:39:33.636Z,101254.93
2017-09-21T21:42:00.525Z,101264.70
2017-09-21T21:44:27.476Z,101260.17
2017-09-21T21:46:54.463Z,101263.17
2017-09-21T21:49:21.397Z,101257.64
2017-09-21T21:51:48.407Z,101261.98
2017-09-21T21:54:15.401Z,101264.22
2017-09-21T21:56:43.137Z,101263.52
2017-09-21T21:59:10.010Z,101271.69
2017-09-21T22:01:37.883Z,101268.45
2017-09-21T22:04:04.847Z,101262.92
2017-09-21T22:06:31.849Z,101263.23
2017-09-21T22:08:59.641Z,101264.98
2017-09-21T22:11:26.694Z,101262.05
2017-09-21T22:13:54.538Z,101257.86
2017-09-21T22:16:21.546Z,101258.96
2017-09-21T22:18:50.314Z,101256.56
2017-09-21T22:21:17.319Z,101258.75
2017-09-21T22:23:44.971Z,101257.31
2017-09-21T22:26:12.014Z,101253.19
2017-09-21T22:28:38.969Z,101258.11
2017-09-21T22:31:05.891Z,101259.73
2017-09-21T22:33:33.452Z,101254.32
2017-09-21T22:36:00.278Z,101250.41
2017-09-21T22:38:27.135Z,101249.77
2017-09-21T22:40:55.626Z,101253.95
2017-09-21T22:43:22.490Z,101255.30
2017-09-21T22:45:49.349Z,101249.40
2017-09-21T22:48:17.307Z,101255.22
2017-09-21T22:50:45.260Z,101253.89
2017-09-21T22:53:12.094Z,101252.03
2017-09-21T22:55:38.954Z,101251.48
2017-09-21T22:58:05.739Z,101252.77
2017-09-21T23:00:32.626Z,101250.64
2017-09-21T23:03:00.232Z,101253.31
2017-09-21T23:05:27.035Z,101256.26
2017-09-21T23:07:53.927Z,101253.11
2017-09-21T23:10:21.478Z,101253.30
2017-09-21T23:12:48.352Z,101257.57
2017-09-21T23:15:15.169Z,101255.08
2017-09-21T23:17:42.010Z,101251.64
2017-09-21T23:20:08.793Z,101255.30
2017-09-21T23:22:35.592Z,101254.56
2017-09-21T23:25:02.470Z,101256.72
2017-09-21T23:27:29.368Z,101253.44
2017-09-21T23:29:56.219Z,101255.28
2017-09-21T23:32:23.034Z,101262.98
2017-09-21T23:34:49.880Z,101259.26
2017-09-21T23:37:16.703Z,101259.20
2017-09-21T23:39:43.604Z,101257.52
2017-09-21T23:42:10.459Z,101263.65
2017-09-21T23:44:37.277Z,101266.63
2017-09-21T23:47:04.167Z,101259.67
2017-09-21T23:49:31.052Z,101258.62
2017-09-21T23:51:57.890Z,101257.03
2017-09-21T23:54:25.110Z,101257.34
2017-09-21T23:56:52.051Z,101256.21
2017-09-21T23:59:19.118Z,101253.98
